VGBG weather

Bogra Airport
Bogra, Rajshahi Division, Bangladesh

Public forecast

Using degrees Celsius for public forecast. Weather courtesy of forecast.io.

METAR (pilot weather report)

Closest report is Hazrat Shahjalal International Airport, 85.3 nm (157.9 km) SE. Retrieved 2019/08/23 13:30 UTC (0 seconds ago):

VGHS 231330Z 00000KT 3500 HZ SCT010 BKN100 29/26 Q1003 TEMPO RA

TAF (pilot weather forecast)

Closest forecast is Hazrat Shahjalal International Airport, 85.3 nm (157.9 km) SE. Retrieved 2019/08/23 12:00 UTC (1 hour ago):

TAF VGHS 231100Z 2312/2418 16009KT 3500 HZ SCT015 BKN100 TEMPO 2320/2409 16025KT 2000 RA/TSRA BKN007 FEW025CB BKN090 BECMG 2414/2416 14006KT 3500 HZ SCT012 BKN100